Joe Foss Field Airport
KFSD : now visible

Airfield :











YOU CAN JOIN US ON...

 
LOGIN :

Register | Disclaimer

   EN    FR    IT 

 









Legend :    VFR   Marginal VFR   IFR   Intensive IFR   Very Intensive IFR
Visi :
Ceiling :
>= 8 km
>= 3000ft
5 to 8 km
1000 to 3000 ft
1500m to 5 km
500 to 1000 ft
800 to 1500m
200 to 500 ft
< 800m
< 200 ft
Symbols :   Thunderstorms  Fog  Heavy snow  Heavy precipitations  Wind > 20 kt






- Airport Elevation : 1429 ft
- IATA code : FSD


KFSD - Joe Foss Field

CURRENT METAR :
  • 122356Z 18017G23KT 10SM FEW100 BKN250 M04/M09 A2997 RMK AO2 SLP178 T10391094 11028 21061 58029

EXPIRED METARs :
  • 122256Z 18015G26KT 10SM FEW100 OVC250 M04/M10 A3000 RMK AO2 PK WND 18028/2226 SLP187 T10391100
  • 122156Z 17019G27KT 10SM BKN250 M03/M11 A3005 RMK AO2 PK WND 17030/2059 SLP204 T10331106

TAF KFSD
Valid from the 13 at 00:00 until the 14 at 00:00 UTC


122341Z 1300/1324 18015G24KT P6SM BKN200
FM130800 18005KT P6SM OVC100
TEMPO 1312/1314 5SM -SNPL OVC025
FM131400 32007KT 5SM -SN OVC045
TEMPO 1314/1317 2SM -SN OVC025
FM131700 32010G15KT P6SM OVC015
TEMPO 1317/1319 4SM -SNRA
FM132300 33011KT P6SM OVC045



MET'MAP, your aeronautical weather chart ! - Copyright ORBIFLY December 2007 - Disclaimer

ORBIFLY MET'MAP TEAM :

Programming & Development : Alexandra Zaïnal
Concept & Development : Baudouin d'Aumeries
Co-Development & Prog : Marc-Olivier Méhu
Technical & hardware support : Manuel Goepfert

Contact : metmap@orbifly.com




SOURCES & CREDITS :

   NOAA       Earth
Advisory